Time;durP1;ratioP1;P1;durP2;ratioP2;P2;SDS_P1;SDS_P2;PMS_P1;PMS_P2;Temp;Humidity;BMP_temperature;BMP_pressure;BME280_temperature;BME280_humidity;BME280_pressure;Samples;Min_cycle;Max_cycle;Signal;HPM_P1;HPM_P2
2021/11/14 00:00:10;;;;;;;79.25;42.72;;;11.80;95.00;;;;;;5052021;28;20044;-93
2021/11/14 00:02:36;;;;;;;80.07;42.47;;;11.80;95.10;;;;;;5062450;22;20159;-61
2021/11/14 00:05:01;;;;;;;84.28;44.10;;;11.70;95.00;;;;;;5060215;28;20477;-61
2021/11/14 00:07:27;;;;;;;90.50;43.55;;;11.70;95.00;;;;;;5061300;28;20032;-61
2021/11/14 00:09:52;;;;;;;85.75;44.40;;;11.70;95.00;;;;;;5041487;28;20036;-60
2021/11/14 00:12:18;;;;;;;93.03;43.88;;;11.70;95.00;;;;;;5058273;28;20043;-61
2021/11/14 00:14:43;;;;;;;89.45;44.55;;;11.70;95.00;;;;;;5044227;28;20046;-61
2021/11/14 00:17:09;;;;;;;80.90;43.55;;;11.70;95.00;;;;;;5060104;28;20406;-61
2021/11/14 00:19:34;;;;;;;82.93;41.58;;;11.70;95.10;;;;;;5026572;28;20222;-61
2021/11/14 00:22:00;;;;;;;91.75;43.70;;;11.60;95.00;;;;;;5064498;28;20416;-61
2021/11/14 00:24:25;;;;;;;79.45;41.15;;;11.60;95.00;;;;;;5045456;28;20250;-61
2021/11/14 00:26:51;;;;;;;76.93;44.85;;;11.60;95.10;;;;;;5044981;28;20104;-61
2021/11/14 00:29:17;;;;;;;80.30;41.72;;;11.60;95.00;;;;;;5045283;28;20375;-61
2021/11/14 00:31:42;;;;;;;82.53;40.03;;;11.60;95.10;;;;;;5042405;28;20475;-61
2021/11/14 00:34:08;;;;;;;74.10;40.63;;;11.60;95.40;;;;;;5051106;28;20027;-61
2021/11/14 00:36:37;;;;;;;71.25;38.80;;;11.60;95.10;;;;;;5042500;28;20048;-61
2021/11/14 00:39:04;;;;;;;75.63;40.28;;;11.60;95.10;;;;;;5060214;28;20054;-61
2021/11/14 00:41:30;;;;;;;85.82;41.30;;;11.60;95.10;;;;;;5044567;28;20123;-61
2021/11/14 00:43:55;;;;;;;75.80;40.85;;;11.60;95.10;;;;;;5059103;28;20112;-61
2021/11/14 00:46:21;;;;;;;74.35;40.75;;;11.60;95.20;;;;;;5059259;28;20042;-61
2021/11/14 00:48:46;;;;;;;71.60;38.55;;;11.60;95.20;;;;;;5058036;28;20158;-61
2021/11/14 00:51:15;;;;;;;69.53;38.95;;;11.60;95.20;;;;;;5057364;28;20094;-61
2021/11/14 00:53:40;;;;;;;66.60;39.70;;;11.60;95.20;;;;;;5060724;28;20107;-61
2021/11/14 00:56:06;;;;;;;72.00;38.80;;;11.60;95.20;;;;;;5057549;28;20109;-61
2021/11/14 00:58:31;;;;;;;75.05;39.70;;;11.50;95.20;;;;;;5043446;28;20025;-61
2021/11/14 01:00:57;;;;;;;68.60;38.08;;;11.50;95.20;;;;;;5074587;28;20562;-61
2021/11/14 01:03:23;;;;;;;67.95;37.92;;;11.50;95.20;;;;;;5059682;28;20087;-61
2021/11/14 01:05:48;;;;;;;74.68;39.67;;;11.50;95.20;;;;;;5061088;28;20099;-61
2021/11/14 01:08:14;;;;;;;72.60;38.72;;;11.50;95.20;;;;;;5058793;28;20262;-61
2021/11/14 01:10:42;;;;;;;76.03;40.10;;;11.50;95.20;;;;;;5054124;28;20582;-61
2021/11/14 01:13:08;;;;;;;69.65;37.47;;;11.50;95.20;;;;;;5044105;28;20028;-61
2021/11/14 01:15:34;;;;;;;63.38;37.42;;;11.50;95.20;;;;;;5039985;28;20399;-61
2021/11/14 01:17:59;;;;;;;69.10;38.40;;;11.50;95.20;;;;;;5061048;28;20530;-61
2021/11/14 01:20:28;;;;;;;54.20;34.70;;;11.50;95.30;;;;;;5073026;28;20032;-61
2021/11/14 01:22:54;;;;;;;65.22;35.75;;;11.50;95.20;;;;;;5044975;28;20017;-61
2021/11/14 01:25:20;;;;;;;65.75;35.45;;;11.50;95.30;;;;;;5044750;28;20036;-61
2021/11/14 01:27:46;;;;;;;63.08;35.83;;;11.50;95.30;;;;;;5044443;28;20112;-61
2021/11/14 01:30:19;;;;;;;57.88;36.10;;;11.50;95.30;;;;;;5045005;28;20029;-61
2021/11/14 01:32:45;;;;;;;59.28;34.70;;;11.50;95.30;;;;;;5030138;28;20025;-61
2021/11/14 01:35:11;;;;;;;60.00;35.97;;;11.40;95.30;;;;;;5043545;28;20622;-61
2021/11/14 01:37:36;;;;;;;60.67;35.60;;;11.40;95.30;;;;;;5027827;28;20123;-61
2021/11/14 01:40:04;;;;;;;65.13;34.50;;;11.40;95.30;;;;;;5043897;28;20345;-61
2021/11/14 01:42:29;;;;;;;59.00;34.42;;;11.40;95.30;;;;;;5042968;28;20090;-61
2021/11/14 01:44:55;;;;;;;61.45;34.15;;;11.40;95.30;;;;;;5045306;28;20128;-61
2021/11/14 01:47:20;;;;;;;61.22;33.42;;;11.40;95.30;;;;;;5010766;28;20056;-61
2021/11/14 01:49:46;;;;;;;60.28;33.35;;;11.40;95.40;;;;;;5044037;28;20494;-61
2021/11/14 01:52:21;;;;;;;53.00;32.35;;;11.40;95.30;;;;;;5043053;28;20025;-61
2021/11/14 01:54:47;;;;;;;59.78;33.83;;;11.40;95.30;;;;;;5024607;28;20075;-61
2021/11/14 01:57:13;;;;;;;53.40;31.70;;;11.40;95.30;;;;;;5045406;28;20404;-61
2021/11/14 01:59:38;;;;;;;50.35;33.40;;;11.40;95.30;;;;;;5028102;28;20476;-60
2021/11/14 02:02:04;;;;;;;63.65;34.22;;;11.40;95.40;;;;;;5027390;28;20041;-61
2021/11/14 02:04:30;;;;;;;61.63;33.60;;;11.40;95.40;;;;;;5042419;28;20057;-61
2021/11/14 02:06:55;;;;;;;61.45;35.22;;;11.40;95.40;;;;;;5026129;28;20025;-61
2021/11/14 02:09:21;;;;;;;56.22;33.08;;;11.40;95.70;;;;;;5044118;28;20025;-60
2021/11/14 02:11:46;;;;;;;54.55;33.67;;;11.30;95.40;;;;;;5026737;28;20043;-61
2021/11/14 02:14:12;;;;;;;57.28;32.67;;;11.30;95.40;;;;;;5027629;28;20032;-61
2021/11/14 02:16:37;;;;;;;55.15;31.77;;;11.30;95.40;;;;;;5025714;28;20028;-61
2021/11/14 02:19:03;;;;;;;55.17;32.60;;;11.30;95.50;;;;;;5025902;28;20014;-61
2021/11/14 02:21:28;;;;;;;53.58;33.10;;;11.30;95.50;;;;;;5043498;28;20139;-61
2021/11/14 02:23:54;;;;;;;46.75;30.10;;;11.30;95.40;;;;;;5044782;28;20407;-61
2021/11/14 02:26:22;;;;;;;57.05;32.95;;;11.30;95.40;;;;;;5026584;28;20483;-61
2021/11/14 02:28:48;;;;;;;61.22;32.22;;;11.30;95.40;;;;;;5026992;28;20025;-60
2021/11/14 02:31:14;;;;;;;47.20;31.60;;;11.30;95.40;;;;;;5025072;28;20091;-61
2021/11/14 02:33:39;;;;;;;54.75;31.65;;;11.30;95.50;;;;;;5010321;28;20041;-61
2021/11/14 02:36:07;;;;;;;55.58;31.50;;;11.30;95.50;;;;;;5026483;28;20017;-60
2021/11/14 02:38:33;;;;;;;63.60;33.83;;;11.30;95.50;;;;;;5027063;28;20021;-61
2021/11/14 02:40:58;;;;;;;51.85;31.73;;;11.30;95.50;;;;;;5025073;28;20543;-61
2021/11/14 02:43:24;;;;;;;48.30;32.28;;;11.30;95.40;;;;;;5043256;28;20033;-60
2021/11/14 02:45:50;;;;;;;46.22;32.08;;;11.30;95.50;;;;;;5025924;28;20029;-61
2021/11/14 02:48:15;;;;;;;50.22;30.55;;;11.30;95.50;;;;;;5026826;28;20037;-62
2021/11/14 02:50:42;;;;;;;50.80;30.30;;;11.30;95.50;;;;;;5042388;28;20506;-61
2021/11/14 02:53:07;;;;;;;51.78;31.33;;;11.30;95.50;;;;;;5026707;28;20031;-61
2021/11/14 02:55:33;;;;;;;50.40;29.77;;;11.30;95.50;;;;;;5023836;28;20033;-61
2021/11/14 02:57:59;;;;;;;51.42;31.02;;;11.30;95.50;;;;;;5025409;28;20032;-61
2021/11/14 03:00:34;;;;;;;52.72;28.90;;;11.30;95.50;;;;;;5025352;28;20257;-61
2021/11/14 03:02:59;;;;;;;47.13;29.25;;;11.30;95.50;;;;;;5027030;28;20041;-61
2021/11/14 03:05:25;;;;;;;43.67;30.55;;;11.30;95.50;;;;;;5026292;28;20040;-61
2021/11/14 03:07:50;;;;;;;47.47;29.98;;;11.20;95.50;;;;;;5008720;28;20576;-61
2021/11/14 03:10:19;;;;;;;46.90;30.52;;;11.30;95.50;;;;;;5042609;28;20044;-61
2021/11/14 03:13:01;;;;;;;46.85;30.58;;;11.20;95.50;;;;;;5025007;28;20567;-61
2021/11/14 03:15:28;;;;;;;41.60;28.20;;;11.20;95.50;;;;;;5024235;28;20624;-61
2021/11/14 03:17:54;;;;;;;45.83;29.33;;;11.20;95.50;;;;;;5044861;28;20039;-60
2021/11/14 03:20:19;;;;;;;46.50;28.42;;;11.20;95.60;;;;;;5008172;28;20067;-61
2021/11/14 03:22:45;;;;;;;54.92;29.48;;;11.20;95.60;;;;;;5025610;28;20033;-60
2021/11/14 03:25:10;;;;;;;46.78;29.05;;;11.20;95.60;;;;;;5042534;28;20020;-61
2021/11/14 03:27:36;;;;;;;42.55;29.90;;;11.20;95.60;;;;;;5023875;28;20025;-61
2021/11/14 03:30:04;;;;;;;43.58;30.02;;;11.20;95.60;;;;;;5043388;28;20080;-61
2021/11/14 03:32:29;;;;;;;41.22;27.83;;;11.20;95.50;;;;;;5043564;28;20033;-60
2021/11/14 03:34:55;;;;;;;46.50;29.33;;;11.20;95.60;;;;;;5024180;28;20484;-61
2021/11/14 03:37:20;;;;;;;48.90;28.23;;;11.20;95.60;;;;;;5042722;28;20491;-60
2021/11/14 03:39:47;;;;;;;46.83;28.50;;;11.20;95.60;;;;;;5025171;28;20095;-61
2021/11/14 03:42:13;;;;;;;42.78;27.45;;;11.20;95.60;;;;;;5024118;28;20037;-61
2021/11/14 03:44:40;;;;;;;41.05;28.13;;;11.20;95.60;;;;;;5019966;28;20033;-61
2021/11/14 03:47:06;;;;;;;38.25;26.90;;;11.10;95.60;;;;;;5005950;28;20032;-61
2021/11/14 03:49:31;;;;;;;38.25;26.00;;;11.10;95.60;;;;;;5008051;28;20028;-61
2021/11/14 03:51:57;;;;;;;40.35;26.50;;;11.10;95.70;;;;;;5041144;28;20104;-61
2021/11/14 03:54:23;;;;;;;39.00;27.63;;;11.20;95.70;;;;;;5023972;28;20114;-60
2021/11/14 03:56:48;;;;;;;41.22;27.45;;;11.20;95.70;;;;;;5025609;28;20080;-61
2021/11/14 03:59:14;;;;;;;47.53;27.17;;;11.20;95.70;;;;;;5024032;28;20600;-61
2021/11/14 04:01:39;;;;;;;38.65;26.00;;;11.10;95.70;;;;;;5007695;28;20045;-61
2021/11/14 04:04:05;;;;;;;42.38;26.80;;;11.10;95.70;;;;;;5038621;28;20025;-62
2021/11/14 04:06:31;;;;;;;46.40;28.27;;;11.10;95.70;;;;;;5005908;28;20033;-60
2021/11/14 04:08:56;;;;;;;39.10;25.27;;;11.20;95.70;;;;;;5039004;28;20180;-60
2021/11/14 04:11:22;;;;;;;34.78;24.40;;;11.10;95.60;;;;;;5040881;28;20112;-61
2021/11/14 04:13:47;;;;;;;39.08;25.27;;;11.10;95.60;;;;;;5007561;28;20120;-61
2021/11/14 04:16:13;;;;;;;38.50;26.85;;;11.10;95.60;;;;;;5040463;28;20037;-61
2021/11/14 04:18:39;;;;;;;38.00;25.92;;;11.10;95.60;;;;;;5024260;28;20029;-61
2021/11/14 04:21:06;;;;;;;41.30;26.30;;;11.10;95.70;;;;;;5007817;28;20037;-60
2021/11/14 04:23:31;;;;;;;36.08;24.15;;;11.10;95.70;;;;;;5025813;28;20017;-60
2021/11/14 04:25:57;;;;;;;40.70;26.98;;;11.10;95.70;;;;;;5041565;28;20078;-61
2021/11/14 04:28:22;;;;;;;36.35;24.15;;;11.10;95.70;;;;;;5040200;28;20165;-60
2021/11/14 04:30:48;;;;;;;36.08;23.80;;;11.10;95.70;;;;;;5007207;28;20041;-61
2021/11/14 04:33:15;;;;;;;34.60;25.55;;;11.10;95.70;;;;;;5025176;28;20032;-61
2021/11/14 04:35:40;;;;;;;35.45;23.13;;;11.10;95.70;;;;;;5024837;28;20029;-61
2021/11/14 04:38:06;;;;;;;35.58;24.85;;;11.10;95.70;;;;;;5040025;28;20071;-61
2021/11/14 04:40:36;;;;;;;36.33;23.92;;;11.10;95.70;;;;;;5005783;28;20052;-60
2021/11/14 04:43:01;;;;;;;35.30;24.10;;;11.10;95.70;;;;;;5038451;28;20356;-61
2021/11/14 04:45:27;;;;;;;35.40;25.13;;;11.10;95.70;;;;;;5040493;28;20052;-60
2021/11/14 04:47:52;;;;;;;33.53;24.67;;;11.10;95.70;;;;;;5024593;28;20052;-60
2021/11/14 04:50:19;;;;;;;34.65;23.23;;;11.10;95.70;;;;;;5024916;28;20033;-61
2021/11/14 04:52:45;;;;;;;41.10;23.85;;;11.10;95.70;;;;;;5022829;28;21196;-60
2021/11/14 04:55:10;;;;;;;37.78;23.10;;;11.10;95.70;;;;;;5021501;28;20035;-61
2021/11/14 04:57:36;;;;;;;39.30;24.23;;;11.10;95.70;;;;;;5041603;28;20116;-61
2021/11/14 05:00:05;;;;;;;32.47;21.85;;;11.00;95.70;;;;;;5024752;28;20402;-61
2021/11/14 05:02:31;;;;;;;35.90;23.52;;;11.00;95.70;;;;;;5041741;28;20053;-60
2021/11/14 05:04:57;;;;;;;33.42;23.55;;;11.10;95.70;;;;;;5039790;28;20032;-60
2021/11/14 05:07:22;;;;;;;34.97;22.40;;;11.10;95.70;;;;;;5041476;28;20111;-61
2021/11/14 05:09:48;;;;;;;35.35;23.73;;;11.10;95.70;;;;;;5040263;28;20037;-61
2021/11/14 05:12:13;;;;;;;59.00;24.08;;;11.10;95.70;;;;;;5038030;28;20037;-61
2021/11/14 05:14:39;;;;;;;49.47;23.40;;;11.10;95.70;;;;;;5040553;28;20032;-61
2021/11/14 05:17:04;;;;;;;48.40;25.05;;;11.10;95.70;;;;;;5042470;28;20529;-60
2021/11/14 05:19:30;;;;;;;49.78;23.23;;;11.10;95.70;;;;;;5038806;28;20207;-61
2021/11/14 05:21:55;;;;;;;53.00;23.85;;;11.10;96.00;;;;;;5056107;28;20071;-61
2021/11/14 05:24:21;;;;;;;40.72;21.90;;;11.00;95.60;;;;;;5022326;28;20055;-60
2021/11/14 05:26:47;;;;;;;43.58;22.80;;;11.10;95.80;;;;;;5025521;28;20029;-60
2021/11/14 05:29:13;;;;;;;45.92;23.65;;;11.10;95.80;;;;;;5024449;28;20036;-60
2021/11/14 05:31:38;;;;;;;44.83;23.33;;;11.00;95.80;;;;;;5024099;28;20045;-61
2021/11/14 05:34:04;;;;;;;36.75;20.98;;;11.10;95.90;;;;;;5040026;28;20028;-61
2021/11/14 05:36:29;;;;;;;38.38;22.23;;;11.10;95.90;;;;;;5023269;28;20112;-61
2021/11/14 05:38:55;;;;;;;38.75;20.67;;;11.10;95.90;;;;;;5022869;28;20104;-60
2021/11/14 05:41:20;;;;;;;45.08;22.52;;;11.10;95.90;;;;;;5056025;28;20049;-61
2021/11/14 05:43:46;;;;;;;32.80;21.45;;;11.10;95.90;;;;;;5006853;28;20400;-61
2021/11/14 05:46:12;;;;;;;42.20;23.60;;;11.00;95.90;;;;;;5040087;28;20396;-61
2021/11/14 05:48:37;;;;;;;37.85;22.38;;;11.10;96.00;;;;;;5040506;28;20104;-60
2021/11/14 05:51:03;;;;;;;38.75;22.10;;;11.10;96.00;;;;;;5006587;28;20041;-60
2021/11/14 05:53:28;;;;;;;34.25;21.20;;;11.10;96.00;;;;;;5007800;28;20075;-61
2021/11/14 05:55:54;;;;;;;42.20;22.65;;;11.10;96.00;;;;;;5041925;28;20464;-61
2021/11/14 05:58:45;;;;;;;49.78;23.13;;;11.10;96.00;;;;;;5023295;28;20060;-61
2021/11/14 06:01:19;;;;;;;35.33;21.67;;;11.10;96.00;;;;;;5041190;28;20102;-60
2021/11/14 06:06:22;;;;;;;34.20;20.13;;;11.10;96.00;;;;;;5030415;28;20029;-60
2021/11/14 06:08:48;;;;;;;28.63;19.40;;;11.10;96.00;;;;;;5045241;28;20017;-61
2021/11/14 06:11:13;;;;;;;74.10;22.08;;;11.10;96.10;;;;;;5026883;28;20036;-61
2021/11/14 06:13:39;;;;;;;60.35;22.35;;;11.10;96.10;;;;;;5045626;28;20063;-61
2021/11/14 06:16:04;;;;;;;67.13;22.73;;;11.10;96.10;;;;;;5014909;28;20481;-61
2021/11/14 06:18:30;;;;;;;57.88;20.55;;;11.10;96.10;;;;;;5046702;28;20544;-60
2021/11/14 06:20:56;;;;;;;61.50;21.05;;;11.10;96.10;;;;;;5046953;28;20078;-60
2021/11/14 06:23:22;;;;;;;83.25;22.58;;;11.10;96.00;;;;;;5065372;28;20112;-60
2021/11/14 06:25:47;;;;;;;95.88;22.33;;;11.10;96.00;;;;;;5045991;28;20451;-60
2021/11/14 06:28:13;;;;;;;112.25;25.45;;;11.10;96.10;;;;;;5014314;28;20087;-60
2021/11/14 06:30:38;;;;;;;101.65;21.92;;;11.10;96.10;;;;;;5066239;28;20109;-60
2021/11/14 06:33:05;;;;;;;107.40;25.73;;;11.10;96.10;;;;;;5048565;28;20017;-61
2021/11/14 06:35:30;;;;;;;150.20;23.88;;;11.10;96.40;;;;;;5030367;28;20434;-61
2021/11/14 06:37:56;;;;;;;97.00;22.70;;;11.10;96.10;;;;;;5029264;28;20021;-60
2021/11/14 06:40:22;;;;;;;105.40;25.05;;;11.10;96.20;;;;;;5028132;28;20041;-61
2021/11/14 06:42:49;;;;;;;110.60;23.55;;;11.10;96.10;;;;;;5046523;28;20063;-60
2021/11/14 06:45:14;;;;;;;122.15;23.95;;;11.10;96.10;;;;;;5015572;28;20039;-61
2021/11/14 06:47:40;;;;;;;80.28;21.70;;;11.10;96.10;;;;;;5047566;28;20021;-61
2021/11/14 06:50:06;;;;;;;67.50;20.30;;;11.10;96.10;;;;;;5029645;28;20066;-61
2021/11/14 06:52:31;;;;;;;73.05;21.83;;;11.10;96.30;;;;;;5019960;28;20044;-61
2021/11/14 06:54:57;;;;;;;68.22;20.23;;;11.10;96.00;;;;;;5044831;28;20028;-61
2021/11/14 06:57:22;;;;;;;72.10;20.67;;;11.10;96.00;;;;;;5046627;28;20133;-60
2021/11/14 06:59:48;;;;;;;81.80;21.35;;;11.10;96.00;;;;;;5065668;28;20044;-61
2021/11/14 07:02:14;;;;;;;73.55;22.63;;;11.10;96.00;;;;;;5029689;28;20056;-61
2021/11/14 07:04:39;;;;;;;81.93;22.15;;;11.10;96.00;;;;;;5044425;28;20029;-61
2021/11/14 07:07:05;;;;;;;72.53;22.17;;;11.20;96.00;;;;;;5046165;28;20056;-61
2021/11/14 07:09:30;;;;;;;54.30;22.23;;;11.10;96.30;;;;;;5028636;28;20060;-61
2021/11/14 07:11:56;;;;;;;62.55;21.15;;;11.20;96.00;;;;;;5029851;28;20336;-60
2021/11/14 07:14:25;;;;;;;57.42;20.95;;;11.10;96.00;;;;;;5013382;28;20387;-61
2021/11/14 07:16:51;;;;;;;45.97;20.23;;;11.20;96.10;;;;;;5028566;28;20024;-61
2021/11/14 07:19:16;;;;;;;67.82;21.38;;;11.20;96.00;;;;;;5044567;28;20522;-61
2021/11/14 07:21:42;;;;;;;55.42;21.38;;;11.20;96.00;;;;;;5045794;28;20072;-60
2021/11/14 07:24:08;;;;;;;62.10;21.48;;;11.20;96.00;;;;;;5031018;28;20051;-61
2021/11/14 07:26:33;;;;;;;105.03;22.85;;;11.10;96.00;;;;;;5030230;28;20063;-61
2021/11/14 07:28:59;;;;;;;73.35;21.33;;;11.20;96.00;;;;;;5043970;28;20048;-61
2021/11/14 07:31:24;;;;;;;64.85;19.92;;;11.20;96.00;;;;;;5030062;28;20021;-61
2021/11/14 07:33:50;;;;;;;55.80;20.40;;;11.20;96.00;;;;;;5045988;28;20028;-61
2021/11/14 07:36:16;;;;;;;63.13;21.02;;;11.20;96.00;;;;;;5047701;28;20216;-61
2021/11/14 07:38:41;;;;;;;57.47;19.92;;;11.20;96.00;;;;;;5013073;28;20025;-61
2021/11/14 07:41:07;;;;;;;62.67;21.90;;;11.20;96.00;;;;;;5061181;28;20048;-61
2021/11/14 07:43:33;;;;;;;47.80;23.23;;;11.20;95.90;;;;;;5028886;28;20718;-61
2021/11/14 07:45:58;;;;;;;60.50;22.80;;;11.20;95.90;;;;;;5044580;28;20031;-60
2021/11/14 07:48:24;;;;;;;67.88;22.83;;;11.20;95.90;;;;;;5063696;28;20070;-60
2021/11/14 07:50:52;;;;;;;67.50;23.00;;;11.20;96.00;;;;;;5062902;28;20120;-61
2021/11/14 07:53:17;;;;;;;72.55;23.40;;;11.20;96.00;;;;;;5028622;28;20044;-60
2021/11/14 07:55:43;;;;;;;58.85;22.17;;;11.20;96.00;;;;;;5028497;28;20029;-61
2021/11/14 07:58:08;;;;;;;61.38;20.70;;;11.20;95.90;;;;;;5040807;28;20484;-61
2021/11/14 08:00:35;;;;;;;73.78;22.13;;;11.20;95.90;;;;;;5029780;28;20037;-61
2021/11/14 08:03:01;;;;;;;57.85;21.48;;;11.20;95.90;;;;;;5029726;28;20072;-61
2021/11/14 08:05:28;;;;;;;63.13;21.38;;;11.20;95.90;;;;;;5028702;28;20106;-60
2021/11/14 08:07:54;;;;;;;40.05;19.92;;;11.30;95.90;;;;;;5029783;28;20448;-61
2021/11/14 08:10:19;;;;;;;50.70;21.02;;;11.30;95.80;;;;;;5041205;28;20037;-61
2021/11/14 08:12:45;;;;;;;53.33;20.80;;;11.30;95.90;;;;;;5027215;28;20082;-61
2021/11/14 08:15:11;;;;;;;50.35;19.38;;;11.30;95.90;;;;;;5063179;28;20032;-60
2021/11/14 08:17:37;;;;;;;59.05;19.88;;;11.30;95.80;;;;;;5013637;28;20027;-61
2021/11/14 08:20:03;;;;;;;46.00;20.98;;;11.30;95.80;;;;;;5028517;28;20055;-60
2021/11/14 08:22:29;;;;;;;41.13;19.20;;;11.30;95.80;;;;;;5043995;28;20111;-61
2021/11/14 08:24:55;;;;;;;47.17;19.52;;;11.30;95.80;;;;;;5043245;28;20428;-61
2021/11/14 08:27:24;;;;;;;40.85;20.73;;;11.30;95.80;;;;;;5045965;28;20031;-60
2021/11/14 08:29:50;;;;;;;40.92;19.60;;;11.30;95.80;;;;;;5013372;28;20175;-61
2021/11/14 08:32:17;;;;;;;42.67;20.05;;;11.30;95.80;;;;;;5029327;28;20104;-61
2021/11/14 08:34:43;;;;;;;51.78;19.73;;;11.30;95.80;;;;;;5026184;28;20027;-61
2021/11/14 08:37:08;;;;;;;54.63;20.63;;;11.40;95.90;;;;;;5043973;28;20036;-61
2021/11/14 08:39:34;;;;;;;47.28;19.73;;;11.40;95.90;;;;;;5060960;28;20028;-60
2021/11/14 08:41:59;;;;;;;45.97;19.17;;;11.40;96.00;;;;;;5011550;28;20017;-60
2021/11/14 08:44:25;;;;;;;39.95;17.85;;;11.40;96.00;;;;;;5012064;28;20047;-61
2021/11/14 08:46:55;;;;;;;38.80;19.40;;;11.40;96.00;;;;;;5026825;28;20098;-61
2021/11/14 08:49:21;;;;;;;42.38;18.63;;;11.50;95.90;;;;;;5043734;28;20119;-61
2021/11/14 08:51:46;;;;;;;47.00;18.92;;;11.50;95.90;;;;;;5015937;28;20194;-61
2021/11/14 08:54:12;;;;;;;35.10;18.90;;;11.50;95.90;;;;;;5028795;28;20101;-61
2021/11/14 08:56:39;;;;;;;40.85;17.95;;;11.50;95.90;;;;;;5045630;28;20118;-61
2021/11/14 08:59:05;;;;;;;40.28;17.65;;;11.50;95.90;;;;;;5027486;28;20055;-61
2021/11/14 09:01:31;;;;;;;34.58;17.15;;;11.40;95.90;;;;;;5043199;28;20047;-61
2021/11/14 09:03:57;;;;;;;36.55;18.38;;;11.50;95.90;;;;;;5043551;28;20399;-61
2021/11/14 09:06:23;;;;;;;39.22;19.70;;;11.50;96.00;;;;;;5026038;28;20020;-60
2021/11/14 09:08:49;;;;;;;39.72;17.90;;;11.50;96.00;;;;;;5043737;28;20029;-61
2021/11/14 09:11:15;;;;;;;42.35;18.98;;;11.60;96.00;;;;;;5042394;28;20032;-61
2021/11/14 09:13:40;;;;;;;48.70;19.20;;;11.60;96.00;;;;;;5038114;28;20044;-60
2021/11/14 09:16:06;;;;;;;42.35;18.08;;;11.50;96.00;;;;;;5008866;28;20105;-61
2021/11/14 09:18:32;;;;;;;39.05;17.90;;;11.60;96.00;;;;;;5043309;28;20017;-61
2021/11/14 09:20:57;;;;;;;53.22;18.20;;;11.60;96.00;;;;;;5060829;28;20071;-60
2021/11/14 09:23:23;;;;;;;45.17;18.80;;;11.60;96.00;;;;;;5042976;28;20044;-59
2021/11/14 09:25:49;;;;;;;51.75;18.88;;;11.60;96.00;;;;;;5050043;28;20033;-60
2021/11/14 09:28:16;;;;;;;48.95;20.05;;;11.60;96.00;;;;;;5024278;28;20525;-60
2021/11/14 09:30:42;;;;;;;60.35;20.23;;;11.70;96.00;;;;;;5042449;28;20044;-60
2021/11/14 09:33:08;;;;;;;42.67;18.50;;;11.70;96.10;;;;;;5024585;28;20447;-59
2021/11/14 09:35:34;;;;;;;52.90;20.27;;;11.70;96.20;;;;;;5044214;28;20039;-60
2021/11/14 09:37:59;;;;;;;71.15;18.35;;;12.00;96.10;;;;;;5040608;28;20028;-60
2021/11/14 09:40:25;;;;;;;50.90;18.02;;;11.80;96.10;;;;;;5040033;28;20683;-60
2021/11/14 09:42:50;;;;;;;70.30;18.05;;;11.80;96.10;;;;;;5059140;28;20394;-60
2021/11/14 09:45:16;;;;;;;70.68;20.38;;;11.90;96.10;;;;;;5045730;28;20034;-60
2021/11/14 09:47:41;;;;;;;74.85;20.38;;;11.90;96.10;;;;;;5027633;28;20035;-60
2021/11/14 09:50:07;;;;;;;66.35;18.80;;;11.90;96.20;;;;;;5046980;28;20112;-60
2021/11/14 09:52:33;;;;;;;101.20;21.67;;;12.00;96.20;;;;;;5043405;28;20107;-60
2021/11/14 09:55:01;;;;;;;74.97;20.50;;;12.00;96.30;;;;;;5063636;28;20119;-60
2021/11/14 09:57:26;;;;;;;82.47;20.95;;;12.00;96.30;;;;;;5027147;28;20098;-59
2021/11/14 09:59:52;;;;;;;90.13;22.30;;;12.00;96.30;;;;;;5029287;28;20024;-59
2021/11/14 10:02:18;;;;;;;94.28;22.33;;;12.00;96.50;;;;;;5029873;28;20503;-60
2021/11/14 10:04:44;;;;;;;128.77;24.55;;;12.10;96.50;;;;;;5030203;28;20045;-60
2021/11/14 10:07:14;;;;;;;100.90;22.90;;;12.10;96.50;;;;;;5027442;28;20482;-59
2021/11/14 10:09:44;;;;;;;124.40;24.45;;;12.10;96.70;;;;;;5046357;28;20086;-60
2021/11/14 10:12:11;;;;;;;108.80;22.38;;;12.20;96.80;;;;;;5029707;28;20017;-60
2021/11/14 10:14:36;;;;;;;132.48;24.92;;;12.20;96.80;;;;;;5046177;28;20128;-59
2021/11/14 10:17:13;;;;;;;143.68;27.45;;;12.20;96.80;;;;;;5027058;28;20104;-59
2021/11/14 10:19:39;;;;;;;157.73;26.95;;;12.30;96.90;;;;;;5064081;28;20025;-60
2021/11/14 10:22:04;;;;;;;160.32;28.17;;;12.30;96.80;;;;;;5029903;28;20364;-60
2021/11/14 10:24:30;;;;;;;161.90;29.17;;;12.30;97.10;;;;;;5012987;28;20032;-60
2021/11/14 10:26:55;;;;;;;187.05;28.77;;;12.30;97.30;;;;;;5046172;28;20021;-60
2021/11/14 10:29:21;;;;;;;179.35;30.13;;;12.40;97.30;;;;;;5026853;28;20032;-60
2021/11/14 10:31:47;;;;;;;188.02;28.77;;;12.40;97.40;;;;;;5061815;28;20032;-59
2021/11/14 10:34:16;;;;;;;186.43;30.25;;;12.50;97.60;;;;;;5026753;28;20125;-60
2021/11/14 10:36:41;;;;;;;181.75;28.85;;;12.50;97.50;;;;;;5045354;28;20024;-59
2021/11/14 10:39:11;;;;;;;192.77;31.23;;;12.50;97.40;;;;;;5043796;28;20098;-60
2021/11/14 10:41:47;;;;;;;214.10;32.20;;;12.60;97.30;;;;;;5060428;28;20032;-60
2021/11/14 10:44:16;;;;;;;;;;;12.60;97.40;;;;;;5027962;28;20660;-59
2021/11/14 10:46:42;;;;;;;221.85;34.05;;;12.60;97.30;;;;;;5059941;28;19954;-59
2021/11/14 10:49:08;;;;;;;278.58;36.75;;;12.70;97.30;;;;;;5042836;28;20028;-59
2021/11/14 10:51:34;;;;;;;257.25;38.22;;;12.70;97.30;;;;;;5025204;28;20032;-60
2021/11/14 10:54:00;;;;;;;350.40;46.67;;;12.70;97.30;;;;;;5044854;28;20448;-60
2021/11/14 10:56:26;;;;;;;309.65;36.70;;;12.80;97.40;;;;;;5011003;28;20024;-60
2021/11/14 10:58:52;;;;;;;239.80;34.95;;;12.80;97.50;;;;;;5026148;28;20695;-60
2021/11/14 11:01:18;;;;;;;235.10;34.65;;;12.90;97.60;;;;;;5043373;28;20045;-59
2021/11/14 11:03:47;;;;;;;257.67;34.67;;;12.90;97.50;;;;;;5025688;28;20115;-59
2021/11/14 11:06:27;;;;;;;232.18;34.22;;;13.00;97.40;;;;;;5024570;28;20632;-59
2021/11/14 11:08:56;;;;;;;212.55;32.50;;;13.00;97.20;;;;;;5025138;28;20025;-59
2021/11/14 11:11:22;;;;;;;323.52;39.08;;;13.00;97.20;;;;;;5028523;28;20036;-60
2021/11/14 11:13:48;;;;;;;328.63;39.45;;;13.00;97.50;;;;;;5046889;28;20041;-59
2021/11/14 11:16:15;;;;;;;273.83;37.28;;;13.10;97.70;;;;;;5057548;28;20032;-59
2021/11/14 11:18:44;;;;;;;278.38;36.92;;;13.10;97.80;;;;;;5057669;28;20063;-58
2021/11/14 11:21:10;;;;;;;295.90;40.75;;;13.20;97.70;;;;;;5026729;28;20020;-59
2021/11/14 11:23:40;;;;;;;288.35;39.70;;;13.20;97.70;;;;;;5042738;28;20108;-59
2021/11/14 11:26:06;;;;;;;267.85;37.50;;;13.20;97.80;;;;;;5042591;28;20040;-59
2021/11/14 11:28:36;;;;;;;276.77;40.33;;;13.30;97.80;;;;;;5060141;28;20395;-59
2021/11/14 11:31:03;;;;;;;312.15;40.55;;;13.30;97.80;;;;;;5026291;28;20045;-59
2021/11/14 11:33:31;;;;;;;352.75;42.60;;;13.30;98.00;;;;;;5026706;28;20028;-61
2021/11/14 11:35:57;;;;;;;319.45;42.13;;;13.30;98.10;;;;;;5025717;28;20419;-59
2021/11/14 11:38:24;;;;;;;508.33;59.17;;;13.40;98.20;;;;;;5041806;28;20122;-60
2021/11/14 11:40:50;;;;;;;378.00;45.95;;;13.40;98.30;;;;;;5059506;28;20144;-59
2021/11/14 11:43:15;;;;;;;362.88;43.58;;;13.50;98.20;;;;;;5026065;28;20035;-62
2021/11/14 11:45:43;;;;;;;342.13;42.67;;;13.50;98.10;;;;;;5057676;28;20036;-62
2021/11/14 11:48:39;;;;;;;384.42;49.15;;;13.60;98.10;;;;;;5043768;28;20487;-61
2021/11/14 11:51:12;;;;;;;423.08;50.20;;;13.60;98.20;;;;;;5042830;28;20036;-61
2021/11/14 11:53:38;;;;;;;422.60;50.40;;;13.70;98.20;;;;;;5020169;28;20079;-59
2021/11/14 11:56:14;;;;;;;360.10;46.50;;;13.70;98.20;;;;;;5040712;28;20556;-59
2021/11/14 11:58:47;;;;;;;415.67;49.22;;;13.70;98.20;;;;;;5026484;28;20025;-59
2021/11/14 12:01:29;;;;;;;455.63;57.15;;;13.80;98.20;;;;;;5059628;28;20032;-60
2021/11/14 12:04:09;;;;;;;646.85;79.45;;;13.80;98.20;;;;;;5044198;28;20051;-60
2021/11/14 12:06:42;;;;;;;529.45;61.63;;;13.80;98.30;;;;;;5027098;28;20379;-60
2021/11/14 12:09:09;;;;;;;494.20;61.67;;;13.90;98.30;;;;;;5042169;28;20078;-59
2021/11/14 12:11:42;;;;;;;507.50;64.20;;;13.90;98.20;;;;;;5023477;28;20021;-59
2021/11/14 12:14:29;;;;;;;494.48;57.78;;;13.90;98.20;;;;;;5041386;28;20037;-59
2021/11/14 12:17:06;;;;;;;542.92;62.55;;;13.90;98.30;;;;;;5025526;28;20108;-59
2021/11/14 12:19:34;;;;;;;555.00;66.13;;;14.00;98.50;;;;;;5058651;28;20040;-59
2021/11/14 12:22:07;;;;;;;491.67;57.25;;;14.10;98.60;;;;;;5045035;28;20061;-59
2021/11/14 12:24:52;;;;;;;483.25;57.38;;;14.10;98.50;;;;;;5043166;28;20589;-59